sensor_id;sensor_type;location;lat;lon;timestamp;P1;durP1;ratioP1;P2;durP2;ratioP2
66974;SDS011;53903;51.464;-2.584;2022-10-31T00:01:09;21.65;;;3.67;;
66974;SDS011;53903;51.464;-2.584;2022-10-31T00:03:39;21.73;;;4.53;;
66974;SDS011;53903;51.464;-2.584;2022-10-31T00:06:04;21.25;;;3.53;;
66974;SDS011;53903;51.464;-2.584;2022-10-31T00:08:29;19.60;;;3.13;;
66974;SDS011;53903;51.464;-2.584;2022-10-31T00:10:55;20.83;;;2.90;;
66974;SDS011;53903;51.464;-2.584;2022-10-31T00:13:20;23.73;;;3.20;;
66974;SDS011;53903;51.464;-2.584;2022-10-31T00:15:45;19.15;;;3.03;;
66974;SDS011;53903;51.464;-2.584;2022-10-31T00:18:11;26.27;;;3.08;;
66974;SDS011;53903;51.464;-2.584;2022-10-31T00:20:36;21.98;;;3.17;;
66974;SDS011;53903;51.464;-2.584;2022-10-31T00:23:02;21.05;;;3.25;;
66974;SDS011;53903;51.464;-2.584;2022-10-31T00:25:32;16.48;;;2.85;;
66974;SDS011;53903;51.464;-2.584;2022-10-31T00:28:02;21.27;;;2.92;;
66974;SDS011;53903;51.464;-2.584;2022-10-31T00:30:28;27.73;;;3.10;;
66974;SDS011;53903;51.464;-2.584;2022-10-31T00:32:53;29.63;;;3.35;;
66974;SDS011;53903;51.464;-2.584;2022-10-31T00:35:19;27.95;;;3.90;;
66974;SDS011;53903;51.464;-2.584;2022-10-31T00:37:44;19.60;;;2.80;;
66974;SDS011;53903;51.464;-2.584;2022-10-31T00:40:10;24.00;;;3.45;;
66974;SDS011;53903;51.464;-2.584;2022-10-31T00:42:35;21.33;;;2.67;;
66974;SDS011;53903;51.464;-2.584;2022-10-31T00:45:01;14.23;;;2.20;;
66974;SDS011;53903;51.464;-2.584;2022-10-31T00:47:26;25.13;;;2.83;;
66974;SDS011;53903;51.464;-2.584;2022-10-31T00:49:51;21.90;;;2.75;;
66974;SDS011;53903;51.464;-2.584;2022-10-31T00:52:17;18.25;;;2.50;;
66974;SDS011;53903;51.464;-2.584;2022-10-31T00:54:42;17.40;;;2.65;;
66974;SDS011;53903;51.464;-2.584;2022-10-31T00:57:07;19.08;;;2.45;;
66974;SDS011;53903;51.464;-2.584;2022-10-31T00:59:33;16.20;;;2.67;;
66974;SDS011;53903;51.464;-2.584;2022-10-31T01:01:58;24.20;;;2.70;;
66974;SDS011;53903;51.464;-2.584;2022-10-31T01:04:23;22.27;;;3.63;;
66974;SDS011;53903;51.464;-2.584;2022-10-31T01:06:49;19.85;;;2.67;;
66974;SDS011;53903;51.464;-2.584;2022-10-31T01:09:14;21.65;;;3.65;;
66974;SDS011;53903;51.464;-2.584;2022-10-31T01:11:39;18.30;;;2.70;;
66974;SDS011;53903;51.464;-2.584;2022-10-31T01:14:05;17.30;;;2.97;;
66974;SDS011;53903;51.464;-2.584;2022-10-31T01:16:30;20.23;;;2.35;;
66974;SDS011;53903;51.464;-2.584;2022-10-31T01:18:55;20.33;;;2.70;;
66974;SDS011;53903;51.464;-2.584;2022-10-31T01:21:25;16.77;;;2.60;;
66974;SDS011;53903;51.464;-2.584;2022-10-31T01:23:55;13.02;;;2.85;;
66974;SDS011;53903;51.464;-2.584;2022-10-31T01:26:22;14.65;;;2.20;;
66974;SDS011;53903;51.464;-2.584;2022-10-31T01:28:50;15.20;;;2.45;;
66974;SDS011;53903;51.464;-2.584;2022-10-31T01:31:17;18.05;;;2.53;;
66974;SDS011;53903;51.464;-2.584;2022-10-31T01:33:44;16.17;;;1.90;;
66974;SDS011;53903;51.464;-2.584;2022-10-31T01:36:10;19.48;;;2.70;;
66974;SDS011;53903;51.464;-2.584;2022-10-31T01:38:37;16.35;;;2.67;;
66974;SDS011;53903;51.464;-2.584;2022-10-31T01:41:02;17.33;;;2.63;;
66974;SDS011;53903;51.464;-2.584;2022-10-31T01:46:28;13.07;;;2.25;;
66974;SDS011;53903;51.464;-2.584;2022-10-31T01:48:57;26.85;;;4.18;;
66974;SDS011;53903;51.464;-2.584;2022-10-31T01:51:26;14.90;;;2.03;;
66974;SDS011;53903;51.464;-2.584;2022-10-31T01:53:58;15.38;;;2.00;;
66974;SDS011;53903;51.464;-2.584;2022-10-31T01:56:26;19.10;;;2.78;;
66974;SDS011;53903;51.464;-2.584;2022-10-31T01:58:51;19.17;;;2.25;;
66974;SDS011;53903;51.464;-2.584;2022-10-31T02:01:18;19.60;;;3.03;;
66974;SDS011;53903;51.464;-2.584;2022-10-31T02:03:44;18.35;;;2.10;;
66974;SDS011;53903;51.464;-2.584;2022-10-31T02:06:11;16.25;;;2.75;;
66974;SDS011;53903;51.464;-2.584;2022-10-31T02:08:43;12.02;;;3.35;;
66974;SDS011;53903;51.464;-2.584;2022-10-31T02:11:08;21.15;;;2.47;;
66974;SDS011;53903;51.464;-2.584;2022-10-31T02:13:34;20.08;;;2.28;;
66974;SDS011;53903;51.464;-2.584;2022-10-31T02:15:59;15.82;;;2.30;;
66974;SDS011;53903;51.464;-2.584;2022-10-31T02:18:26;12.65;;;1.80;;
66974;SDS011;53903;51.464;-2.584;2022-10-31T02:20:58;17.20;;;2.42;;
66974;SDS011;53903;51.464;-2.584;2022-10-31T02:31:33;16.33;;;1.92;;
66974;SDS011;53903;51.464;-2.584;2022-10-31T02:34:51;16.38;;;2.70;;
66974;SDS011;53903;51.464;-2.584;2022-10-31T02:37:10;16.63;;;2.20;;
66974;SDS011;53903;51.464;-2.584;2022-10-31T02:39:54;13.90;;;1.80;;
66974;SDS011;53903;51.464;-2.584;2022-10-31T02:48:14;16.58;;;2.20;;
66974;SDS011;53903;51.464;-2.584;2022-10-31T02:50:45;19.80;;;2.50;;
66974;SDS011;53903;51.464;-2.584;2022-10-31T02:53:15;15.15;;;2.28;;
66974;SDS011;53903;51.464;-2.584;2022-10-31T02:55:49;17.60;;;2.13;;
66974;SDS011;53903;51.464;-2.584;2022-10-31T02:58:17;16.02;;;2.47;;
66974;SDS011;53903;51.464;-2.584;2022-10-31T03:11:32;14.75;;;2.00;;
66974;SDS011;53903;51.464;-2.584;2022-10-31T03:14:10;17.73;;;2.53;;
66974;SDS011;53903;51.464;-2.584;2022-10-31T03:16:45;20.88;;;3.03;;
66974;SDS011;53903;51.464;-2.584;2022-10-31T03:19:17;18.63;;;2.53;;
66974;SDS011;53903;51.464;-2.584;2022-10-31T03:21:49;23.10;;;2.45;;
66974;SDS011;53903;51.464;-2.584;2022-10-31T03:24:21;13.30;;;2.55;;
66974;SDS011;53903;51.464;-2.584;2022-10-31T03:26:49;19.90;;;2.25;;
66974;SDS011;53903;51.464;-2.584;2022-10-31T03:29:18;21.70;;;2.40;;
66974;SDS011;53903;51.464;-2.584;2022-10-31T03:31:50;16.75;;;2.17;;
66974;SDS011;53903;51.464;-2.584;2022-10-31T03:34:18;17.23;;;2.25;;
66974;SDS011;53903;51.464;-2.584;2022-10-31T03:36:44;16.85;;;2.42;;
66974;SDS011;53903;51.464;-2.584;2022-10-31T03:39:13;24.73;;;2.95;;
66974;SDS011;53903;51.464;-2.584;2022-10-31T03:41:41;0.15;;;0.08;;
66974;SDS011;53903;51.464;-2.584;2022-10-31T03:44:10;0.75;;;0.30;;
66974;SDS011;53903;51.464;-2.584;2022-10-31T03:46:37;0.00;;;0.00;;
66974;SDS011;53903;51.464;-2.584;2022-10-31T03:49:02;0.00;;;0.00;;
66974;SDS011;53903;51.464;-2.584;2022-10-31T03:59:44;0.00;;;0.00;;
66974;SDS011;53903;51.464;-2.584;2022-10-31T04:02:11;0.10;;;0.10;;
66974;SDS011;53903;51.464;-2.584;2022-10-31T04:04:39;0.00;;;0.00;;
66974;SDS011;53903;51.464;-2.584;2022-10-31T04:07:04;0.00;;;0.00;;
66974;SDS011;53903;51.464;-2.584;2022-10-31T04:09:32;0.00;;;0.00;;
66974;SDS011;53903;51.464;-2.584;2022-10-31T04:11:59;2.63;;;0.32;;
66974;SDS011;53903;51.464;-2.584;2022-10-31T04:14:25;0.00;;;0.00;;
66974;SDS011;53903;51.464;-2.584;2022-10-31T04:16:51;0.57;;;0.55;;
66974;SDS011;53903;51.464;-2.584;2022-10-31T04:19:16;0.00;;;0.00;;
66974;SDS011;53903;51.464;-2.584;2022-10-31T04:21:42;0.00;;;0.00;;
66974;SDS011;53903;51.464;-2.584;2022-10-31T04:24:08;0.00;;;0.00;;
66974;SDS011;53903;51.464;-2.584;2022-10-31T04:26:34;0.00;;;0.00;;
66974;SDS011;53903;51.464;-2.584;2022-10-31T04:28:59;0.20;;;0.10;;
66974;SDS011;53903;51.464;-2.584;2022-10-31T04:31:25;0.00;;;0.00;;
66974;SDS011;53903;51.464;-2.584;2022-10-31T04:33:50;16.65;;;2.72;;
66974;SDS011;53903;51.464;-2.584;2022-10-31T04:36:15;12.73;;;2.22;;
66974;SDS011;53903;51.464;-2.584;2022-10-31T04:38:41;20.35;;;2.67;;
66974;SDS011;53903;51.464;-2.584;2022-10-31T04:41:06;15.68;;;2.00;;
66974;SDS011;53903;51.464;-2.584;2022-10-31T04:43:31;6.07;;;0.95;;
66974;SDS011;53903;51.464;-2.584;2022-10-31T04:45:57;0.22;;;0.22;;
66974;SDS011;53903;51.464;-2.584;2022-10-31T04:48:22;22.83;;;2.20;;
66974;SDS011;53903;51.464;-2.584;2022-10-31T04:50:48;3.42;;;0.47;;
66974;SDS011;53903;51.464;-2.584;2022-10-31T04:53:13;11.35;;;2.47;;
66974;SDS011;53903;51.464;-2.584;2022-10-31T04:55:38;18.73;;;2.63;;
66974;SDS011;53903;51.464;-2.584;2022-10-31T04:58:03;22.83;;;2.60;;
66974;SDS011;53903;51.464;-2.584;2022-10-31T05:00:29;23.80;;;2.45;;
66974;SDS011;53903;51.464;-2.584;2022-10-31T05:02:55;16.80;;;2.65;;
66974;SDS011;53903;51.464;-2.584;2022-10-31T05:05:23;12.13;;;1.77;;
66974;SDS011;53903;51.464;-2.584;2022-10-31T05:07:50;16.13;;;1.95;;
66974;SDS011;53903;51.464;-2.584;2022-10-31T05:10:17;0.00;;;0.00;;
66974;SDS011;53903;51.464;-2.584;2022-10-31T05:12:50;2.75;;;0.32;;
66974;SDS011;53903;51.464;-2.584;2022-10-31T05:15:17;0.10;;;0.10;;
66974;SDS011;53903;51.464;-2.584;2022-10-31T05:17:44;4.38;;;0.20;;
66974;SDS011;53903;51.464;-2.584;2022-10-31T05:20:10;0.00;;;0.00;;
66974;SDS011;53903;51.464;-2.584;2022-10-31T05:22:36;0.00;;;0.00;;
66974;SDS011;53903;51.464;-2.584;2022-10-31T05:25:01;0.00;;;0.00;;
66974;SDS011;53903;51.464;-2.584;2022-10-31T05:27:26;0.00;;;0.00;;
66974;SDS011;53903;51.464;-2.584;2022-10-31T05:29:52;0.00;;;0.00;;
66974;SDS011;53903;51.464;-2.584;2022-10-31T05:32:17;0.13;;;0.13;;
66974;SDS011;53903;51.464;-2.584;2022-10-31T05:34:42;0.00;;;0.00;;
66974;SDS011;53903;51.464;-2.584;2022-10-31T05:37:08;0.00;;;0.00;;
66974;SDS011;53903;51.464;-2.584;2022-10-31T05:39:33;3.92;;;0.35;;
66974;SDS011;53903;51.464;-2.584;2022-10-31T05:41:58;0.00;;;0.00;;
66974;SDS011;53903;51.464;-2.584;2022-10-31T05:44:24;0.00;;;0.00;;
66974;SDS011;53903;51.464;-2.584;2022-10-31T05:46:49;1.08;;;0.38;;
66974;SDS011;53903;51.464;-2.584;2022-10-31T05:49:14;0.00;;;0.00;;
66974;SDS011;53903;51.464;-2.584;2022-10-31T05:51:41;8.43;;;1.50;;
66974;SDS011;53903;51.464;-2.584;2022-10-31T05:54:07;2.17;;;0.15;;
66974;SDS011;53903;51.464;-2.584;2022-10-31T05:56:32;0.30;;;0.30;;
66974;SDS011;53903;51.464;-2.584;2022-10-31T05:58:57;0.00;;;0.00;;
66974;SDS011;53903;51.464;-2.584;2022-10-31T06:01:23;13.20;;;2.00;;
66974;SDS011;53903;51.464;-2.584;2022-10-31T06:03:48;16.85;;;2.33;;
66974;SDS011;53903;51.464;-2.584;2022-10-31T06:06:13;19.58;;;2.08;;
66974;SDS011;53903;51.464;-2.584;2022-10-31T06:08:39;11.07;;;2.00;;
66974;SDS011;53903;51.464;-2.584;2022-10-31T06:11:05;14.38;;;2.50;;
66974;SDS011;53903;51.464;-2.584;2022-10-31T06:13:30;17.70;;;2.85;;
66974;SDS011;53903;51.464;-2.584;2022-10-31T06:15:56;15.93;;;2.45;;
66974;SDS011;53903;51.464;-2.584;2022-10-31T06:18:21;12.35;;;1.95;;
66974;SDS011;53903;51.464;-2.584;2022-10-31T06:20:46;18.23;;;2.00;;
66974;SDS011;53903;51.464;-2.584;2022-10-31T06:23:11;20.35;;;2.63;;
66974;SDS011;53903;51.464;-2.584;2022-10-31T06:25:37;15.88;;;2.28;;
66974;SDS011;53903;51.464;-2.584;2022-10-31T06:28:02;17.13;;;2.40;;
66974;SDS011;53903;51.464;-2.584;2022-10-31T06:30:28;13.40;;;2.15;;
66974;SDS011;53903;51.464;-2.584;2022-10-31T06:32:53;18.20;;;2.03;;
66974;SDS011;53903;51.464;-2.584;2022-10-31T06:35:19;18.88;;;2.25;;
66974;SDS011;53903;51.464;-2.584;2022-10-31T06:37:51;11.60;;;1.83;;
66974;SDS011;53903;51.464;-2.584;2022-10-31T06:40:17;14.75;;;2.50;;
66974;SDS011;53903;51.464;-2.584;2022-10-31T06:42:43;12.38;;;2.33;;
66974;SDS011;53903;51.464;-2.584;2022-10-31T06:45:08;20.55;;;2.78;;
66974;SDS011;53903;51.464;-2.584;2022-10-31T06:47:34;20.38;;;2.60;;
66974;SDS011;53903;51.464;-2.584;2022-10-31T06:49:59;10.95;;;2.10;;
66974;SDS011;53903;51.464;-2.584;2022-10-31T06:52:24;16.05;;;2.33;;
66974;SDS011;53903;51.464;-2.584;2022-10-31T06:54:50;8.90;;;1.70;;
66974;SDS011;53903;51.464;-2.584;2022-10-31T06:57:15;21.25;;;2.45;;
66974;SDS011;53903;51.464;-2.584;2022-10-31T06:59:40;17.05;;;2.63;;
66974;SDS011;53903;51.464;-2.584;2022-10-31T07:02:07;16.67;;;2.22;;
66974;SDS011;53903;51.464;-2.584;2022-10-31T07:04:34;15.50;;;2.35;;
66974;SDS011;53903;51.464;-2.584;2022-10-31T07:06:59;18.70;;;2.42;;
66974;SDS011;53903;51.464;-2.584;2022-10-31T07:09:24;19.85;;;2.42;;
66974;SDS011;53903;51.464;-2.584;2022-10-31T07:11:51;19.13;;;3.42;;
66974;SDS011;53903;51.464;-2.584;2022-10-31T07:14:17;17.25;;;2.75;;
66974;SDS011;53903;51.464;-2.584;2022-10-31T07:16:43;20.15;;;3.92;;
66974;SDS011;53903;51.464;-2.584;2022-10-31T07:19:08;21.95;;;2.67;;
66974;SDS011;53903;51.464;-2.584;2022-10-31T07:21:33;16.20;;;1.98;;
66974;SDS011;53903;51.464;-2.584;2022-10-31T07:23:59;16.05;;;2.75;;
66974;SDS011;53903;51.464;-2.584;2022-10-31T07:26:24;22.67;;;5.60;;
66974;SDS011;53903;51.464;-2.584;2022-10-31T07:28:51;17.33;;;2.65;;
66974;SDS011;53903;51.464;-2.584;2022-10-31T07:31:16;14.48;;;2.92;;
66974;SDS011;53903;51.464;-2.584;2022-10-31T07:33:41;19.95;;;2.90;;
66974;SDS011;53903;51.464;-2.584;2022-10-31T07:36:07;16.13;;;2.38;;
66974;SDS011;53903;51.464;-2.584;2022-10-31T07:38:32;23.35;;;3.28;;
66974;SDS011;53903;51.464;-2.584;2022-10-31T07:40:57;17.10;;;2.20;;
66974;SDS011;53903;51.464;-2.584;2022-10-31T07:43:23;13.68;;;2.30;;
66974;SDS011;53903;51.464;-2.584;2022-10-31T07:45:49;15.50;;;2.63;;
66974;SDS011;53903;51.464;-2.584;2022-10-31T07:48:17;17.75;;;3.05;;
66974;SDS011;53903;51.464;-2.584;2022-10-31T07:50:43;19.58;;;3.05;;
66974;SDS011;53903;51.464;-2.584;2022-10-31T07:53:10;18.48;;;2.45;;
66974;SDS011;53903;51.464;-2.584;2022-10-31T07:55:36;17.58;;;2.13;;
66974;SDS011;53903;51.464;-2.584;2022-10-31T08:00:29;15.45;;;2.40;;
66974;SDS011;53903;51.464;-2.584;2022-10-31T08:03:01;14.85;;;2.70;;
66974;SDS011;53903;51.464;-2.584;2022-10-31T08:05:33;20.52;;;3.28;;
66974;SDS011;53903;51.464;-2.584;2022-10-31T08:07:59;14.32;;;2.10;;
66974;SDS011;53903;51.464;-2.584;2022-10-31T08:10:25;23.15;;;2.70;;
66974;SDS011;53903;51.464;-2.584;2022-10-31T08:12:57;20.45;;;2.80;;
66974;SDS011;53903;51.464;-2.584;2022-10-31T08:15:24;0.00;;;0.00;;
66974;SDS011;53903;51.464;-2.584;2022-10-31T08:17:49;0.22;;;0.10;;
66974;SDS011;53903;51.464;-2.584;2022-10-31T08:20:15;1.25;;;0.75;;
66974;SDS011;53903;51.464;-2.584;2022-10-31T08:22:40;0.00;;;0.00;;
66974;SDS011;53903;51.464;-2.584;2022-10-31T08:25:06;0.20;;;0.20;;
66974;SDS011;53903;51.464;-2.584;2022-10-31T08:27:31;0.20;;;0.20;;
66974;SDS011;53903;51.464;-2.584;2022-10-31T08:29:56;2.13;;;0.57;;
66974;SDS011;53903;51.464;-2.584;2022-10-31T08:32:23;0.00;;;0.00;;
66974;SDS011;53903;51.464;-2.584;2022-10-31T08:34:48;1.33;;;0.30;;
66974;SDS011;53903;51.464;-2.584;2022-10-31T08:37:14;7.47;;;1.40;;
66974;SDS011;53903;51.464;-2.584;2022-10-31T08:39:44;0.90;;;0.73;;
66974;SDS011;53903;51.464;-2.584;2022-10-31T08:42:12;0.00;;;0.00;;
66974;SDS011;53903;51.464;-2.584;2022-10-31T08:44:38;0.00;;;0.00;;
66974;SDS011;53903;51.464;-2.584;2022-10-31T08:47:03;0.00;;;0.00;;
66974;SDS011;53903;51.464;-2.584;2022-10-31T08:49:29;2.92;;;0.93;;
66974;SDS011;53903;51.464;-2.584;2022-10-31T08:51:54;13.25;;;2.80;;
66974;SDS011;53903;51.464;-2.584;2022-10-31T08:54:19;13.05;;;2.40;;
66974;SDS011;53903;51.464;-2.584;2022-10-31T08:56:45;18.08;;;2.80;;
66974;SDS011;53903;51.464;-2.584;2022-10-31T08:59:11;15.25;;;2.08;;
66974;SDS011;53903;51.464;-2.584;2022-10-31T09:01:36;15.55;;;2.47;;
66974;SDS011;53903;51.464;-2.584;2022-10-31T09:04:01;12.07;;;2.20;;
66974;SDS011;53903;51.464;-2.584;2022-10-31T09:06:27;17.33;;;3.22;;
66974;SDS011;53903;51.464;-2.584;2022-10-31T09:08:52;18.15;;;2.67;;
66974;SDS011;53903;51.464;-2.584;2022-10-31T09:11:17;17.38;;;8.52;;
66974;SDS011;53903;51.464;-2.584;2022-10-31T09:13:43;15.13;;;5.20;;
66974;SDS011;53903;51.464;-2.584;2022-10-31T09:16:08;13.60;;;3.08;;
66974;SDS011;53903;51.464;-2.584;2022-10-31T09:18:33;16.02;;;2.85;;
66974;SDS011;53903;51.464;-2.584;2022-10-31T09:20:59;20.02;;;3.80;;
66974;SDS011;53903;51.464;-2.584;2022-10-31T09:23:25;13.52;;;2.50;;
66974;SDS011;53903;51.464;-2.584;2022-10-31T09:25:52;11.10;;;2.03;;
66974;SDS011;53903;51.464;-2.584;2022-10-31T09:28:18;15.57;;;2.10;;
66974;SDS011;53903;51.464;-2.584;2022-10-31T09:30:46;17.77;;;2.47;;
66974;SDS011;53903;51.464;-2.584;2022-10-31T09:33:12;13.15;;;2.63;;
66974;SDS011;53903;51.464;-2.584;2022-10-31T09:35:38;17.58;;;2.92;;
66974;SDS011;53903;51.464;-2.584;2022-10-31T09:38:05;18.45;;;3.90;;
66974;SDS011;53903;51.464;-2.584;2022-10-31T09:40:36;21.35;;;6.72;;
66974;SDS011;53903;51.464;-2.584;2022-10-31T09:51:18;13.98;;;2.10;;
66974;SDS011;53903;51.464;-2.584;2022-10-31T09:56:14;20.15;;;2.42;;
66974;SDS011;53903;51.464;-2.584;2022-10-31T09:58:46;17.38;;;2.72;;
66974;SDS011;53903;51.464;-2.584;2022-10-31T10:04:17;9.90;;;2.70;;
66974;SDS011;53903;51.464;-2.584;2022-10-31T10:07:19;18.83;;;3.78;;
66974;SDS011;53903;51.464;-2.584;2022-10-31T10:09:47;12.20;;;2.88;;
66974;SDS011;53903;51.464;-2.584;2022-10-31T10:15:21;10.25;;;2.08;;
66974;SDS011;53903;51.464;-2.584;2022-10-31T10:23:34;18.73;;;2.10;;
66974;SDS011;53903;51.464;-2.584;2022-10-31T10:29:01;11.52;;;2.67;;
66974;SDS011;53903;51.464;-2.584;2022-10-31T10:31:48;12.27;;;1.95;;
66974;SDS011;53903;51.464;-2.584;2022-10-31T10:34:22;14.68;;;2.90;;
66974;SDS011;53903;51.464;-2.584;2022-10-31T10:36:50;15.90;;;4.60;;
66974;SDS011;53903;51.464;-2.584;2022-10-31T10:39:38;13.13;;;3.58;;
66974;SDS011;53903;51.464;-2.584;2022-10-31T10:42:12;13.52;;;2.00;;
66974;SDS011;53903;51.464;-2.584;2022-10-31T10:44:58;10.70;;;1.83;;
66974;SDS011;53903;51.464;-2.584;2022-10-31T10:47:44;13.23;;;2.15;;
66974;SDS011;53903;51.464;-2.584;2022-10-31T10:50:27;11.57;;;1.80;;
66974;SDS011;53903;51.464;-2.584;2022-10-31T10:55:29;14.60;;;1.95;;
66974;SDS011;53903;51.464;-2.584;2022-10-31T10:58:10;12.57;;;2.50;;
66974;SDS011;53903;51.464;-2.584;2022-10-31T11:00:45;14.82;;;3.45;;
66974;SDS011;53903;51.464;-2.584;2022-10-31T11:03:11;13.55;;;4.20;;
66974;SDS011;53903;51.464;-2.584;2022-10-31T11:08:22;13.70;;;2.58;;
66974;SDS011;53903;51.464;-2.584;2022-10-31T11:11:02;11.27;;;1.98;;
66974;SDS011;53903;51.464;-2.584;2022-10-31T11:16:12;11.05;;;1.98;;
66974;SDS011;53903;51.464;-2.584;2022-10-31T11:18:41;11.35;;;2.17;;
66974;SDS011;53903;51.464;-2.584;2022-10-31T11:21:21;9.10;;;2.10;;
66974;SDS011;53903;51.464;-2.584;2022-10-31T11:23:49;11.13;;;2.00;;
66974;SDS011;53903;51.464;-2.584;2022-10-31T11:26:20;8.00;;;1.70;;
66974;SDS011;53903;51.464;-2.584;2022-10-31T11:28:56;7.45;;;1.75;;
66974;SDS011;53903;51.464;-2.584;2022-10-31T11:31:22;8.88;;;1.60;;
66974;SDS011;53903;51.464;-2.584;2022-10-31T11:33:49;10.35;;;2.13;;
66974;SDS011;53903;51.464;-2.584;2022-10-31T11:38:48;8.20;;;2.20;;
66974;SDS011;53903;51.464;-2.584;2022-10-31T11:41:15;10.68;;;2.30;;
66974;SDS011;53903;51.464;-2.584;2022-10-31T11:43:51;7.45;;;1.70;;
66974;SDS011;53903;51.464;-2.584;2022-10-31T11:46:21;12.15;;;1.75;;
66974;SDS011;53903;51.464;-2.584;2022-10-31T11:48:50;6.35;;;1.30;;
66974;SDS011;53903;51.464;-2.584;2022-10-31T11:51:20;8.13;;;1.52;;
66974;SDS011;53903;51.464;-2.584;2022-10-31T11:53:51;11.35;;;2.25;;
66974;SDS011;53903;51.464;-2.584;2022-10-31T11:56:17;8.27;;;1.80;;
66974;SDS011;53903;51.464;-2.584;2022-10-31T11:58:43;9.77;;;2.40;;
66974;SDS011;53903;51.464;-2.584;2022-10-31T12:01:24;13.35;;;1.85;;
66974;SDS011;53903;51.464;-2.584;2022-10-31T12:03:54;8.60;;;1.98;;
66974;SDS011;53903;51.464;-2.584;2022-10-31T12:06:36;7.45;;;1.40;;
66974;SDS011;53903;51.464;-2.584;2022-10-31T12:09:18;10.27;;;2.15;;
66974;SDS011;53903;51.464;-2.584;2022-10-31T12:14:31;7.60;;;2.10;;
66974;SDS011;53903;51.464;-2.584;2022-10-31T12:17:09;10.35;;;2.25;;
66974;SDS011;53903;51.464;-2.584;2022-10-31T12:20:03;14.00;;;2.35;;
66974;SDS011;53903;51.464;-2.584;2022-10-31T12:23:06;5.85;;;1.80;;
66974;SDS011;53903;51.464;-2.584;2022-10-31T12:26:17;8.07;;;1.67;;
66974;SDS011;53903;51.464;-2.584;2022-10-31T12:28:57;9.18;;;1.38;;
66974;SDS011;53903;51.464;-2.584;2022-10-31T12:40:33;7.15;;;1.50;;
66974;SDS011;53903;51.464;-2.584;2022-10-31T12:44:12;12.45;;;1.50;;
66974;SDS011;53903;51.464;-2.584;2022-10-31T12:46:11;7.28;;;1.40;;
66974;SDS011;53903;51.464;-2.584;2022-10-31T13:02:02;10.50;;;1.55;;
66974;SDS011;53903;51.464;-2.584;2022-10-31T13:10:07;5.97;;;1.80;;
66974;SDS011;53903;51.464;-2.584;2022-10-31T13:12:41;10.18;;;4.28;;
66974;SDS011;53903;51.464;-2.584;2022-10-31T13:15:21;7.30;;;2.60;;
66974;SDS011;53903;51.464;-2.584;2022-10-31T13:17:48;6.43;;;1.50;;
66974;SDS011;53903;51.464;-2.584;2022-10-31T13:22:51;4.78;;;1.33;;
66974;SDS011;53903;51.464;-2.584;2022-10-31T13:25:20;5.00;;;1.13;;
66974;SDS011;53903;51.464;-2.584;2022-10-31T13:27:51;4.88;;;1.85;;
66974;SDS011;53903;51.464;-2.584;2022-10-31T13:30:20;9.57;;;2.47;;
66974;SDS011;53903;51.464;-2.584;2022-10-31T13:32:51;4.18;;;1.20;;
66974;SDS011;53903;51.464;-2.584;2022-10-31T13:40:47;7.07;;;1.95;;
66974;SDS011;53903;51.464;-2.584;2022-10-31T13:45:54;4.20;;;1.30;;
66974;SDS011;53903;51.464;-2.584;2022-10-31T13:48:32;6.60;;;2.00;;
66974;SDS011;53903;51.464;-2.584;2022-10-31T13:51:09;6.00;;;1.30;;
66974;SDS011;53903;51.464;-2.584;2022-10-31T13:58:40;4.78;;;1.20;;
66974;SDS011;53903;51.464;-2.584;2022-10-31T14:01:33;6.28;;;1.42;;
66974;SDS011;53903;51.464;-2.584;2022-10-31T14:06:38;8.77;;;3.25;;
66974;SDS011;53903;51.464;-2.584;2022-10-31T14:11:47;5.43;;;1.40;;
66974;SDS011;53903;51.464;-2.584;2022-10-31T14:14:13;6.72;;;1.30;;
66974;SDS011;53903;51.464;-2.584;2022-10-31T14:16:39;6.75;;;1.48;;
66974;SDS011;53903;51.464;-2.584;2022-10-31T14:19:07;6.43;;;1.48;;
66974;SDS011;53903;51.464;-2.584;2022-10-31T14:27:04;5.72;;;1.50;;
66974;SDS011;53903;51.464;-2.584;2022-10-31T14:29:46;5.30;;;1.40;;
66974;SDS011;53903;51.464;-2.584;2022-10-31T14:34:41;8.70;;;1.50;;
66974;SDS011;53903;51.464;-2.584;2022-10-31T14:37:14;4.20;;;1.40;;
66974;SDS011;53903;51.464;-2.584;2022-10-31T14:42:31;5.47;;;1.40;;
66974;SDS011;53903;51.464;-2.584;2022-10-31T14:53:14;8.70;;;1.20;;
66974;SDS011;53903;51.464;-2.584;2022-10-31T14:55:46;6.15;;;1.10;;
66974;SDS011;53903;51.464;-2.584;2022-10-31T14:58:15;6.50;;;1.50;;
66974;SDS011;53903;51.464;-2.584;2022-10-31T15:00:50;7.18;;;1.75;;
66974;SDS011;53903;51.464;-2.584;2022-10-31T15:03:22;7.15;;;1.40;;
66974;SDS011;53903;51.464;-2.584;2022-10-31T15:06:03;3.95;;;1.40;;
66974;SDS011;53903;51.464;-2.584;2022-10-31T15:08:43;6.50;;;1.70;;
66974;SDS011;53903;51.464;-2.584;2022-10-31T15:11:17;7.18;;;2.10;;
66974;SDS011;53903;51.464;-2.584;2022-10-31T15:16:17;7.20;;;2.13;;
66974;SDS011;53903;51.464;-2.584;2022-10-31T15:18:48;8.07;;;2.10;;
66974;SDS011;53903;51.464;-2.584;2022-10-31T15:21:16;7.68;;;1.80;;
66974;SDS011;53903;51.464;-2.584;2022-10-31T15:23:42;9.45;;;1.58;;
66974;SDS011;53903;51.464;-2.584;2022-10-31T15:26:11;6.03;;;1.83;;
66974;SDS011;53903;51.464;-2.584;2022-10-31T15:28:42;10.48;;;1.80;;
66974;SDS011;53903;51.464;-2.584;2022-10-31T15:31:17;13.82;;;1.70;;
66974;SDS011;53903;51.464;-2.584;2022-10-31T15:33:44;12.45;;;1.73;;
66974;SDS011;53903;51.464;-2.584;2022-10-31T15:36:17;7.75;;;1.80;;
66974;SDS011;53903;51.464;-2.584;2022-10-31T15:38:44;10.88;;;1.75;;
66974;SDS011;53903;51.464;-2.584;2022-10-31T15:41:30;3.70;;;1.60;;
66974;SDS011;53903;51.464;-2.584;2022-10-31T15:44:42;8.50;;;1.98;;
66974;SDS011;53903;51.464;-2.584;2022-10-31T15:46:52;5.05;;;1.60;;
66974;SDS011;53903;51.464;-2.584;2022-10-31T15:52:01;6.40;;;1.88;;
66974;SDS011;53903;51.464;-2.584;2022-10-31T15:54:31;10.27;;;2.30;;
66974;SDS011;53903;51.464;-2.584;2022-10-31T15:56:57;7.18;;;2.03;;
66974;SDS011;53903;51.464;-2.584;2022-10-31T15:59:23;13.52;;;2.22;;
66974;SDS011;53903;51.464;-2.584;2022-10-31T16:02:01;9.15;;;3.03;;
66974;SDS011;53903;51.464;-2.584;2022-10-31T16:04:28;10.95;;;3.63;;
66974;SDS011;53903;51.464;-2.584;2022-10-31T16:07:12;14.65;;;4.00;;
66974;SDS011;53903;51.464;-2.584;2022-10-31T16:09:49;11.35;;;3.72;;
66974;SDS011;53903;51.464;-2.584;2022-10-31T16:12:15;11.57;;;3.85;;
66974;SDS011;53903;51.464;-2.584;2022-10-31T16:14:41;8.60;;;3.33;;
66974;SDS011;53903;51.464;-2.584;2022-10-31T16:17:10;13.45;;;3.50;;
66974;SDS011;53903;51.464;-2.584;2022-10-31T16:19:46;7.63;;;2.92;;
66974;SDS011;53903;51.464;-2.584;2022-10-31T16:22:23;10.73;;;3.97;;
66974;SDS011;53903;51.464;-2.584;2022-10-31T16:24:58;12.07;;;3.40;;
66974;SDS011;53903;51.464;-2.584;2022-10-31T16:27:53;10.32;;;3.13;;
66974;SDS011;53903;51.464;-2.584;2022-10-31T16:33:05;7.20;;;2.70;;
66974;SDS011;53903;51.464;-2.584;2022-10-31T16:35:46;11.73;;;2.70;;
66974;SDS011;53903;51.464;-2.584;2022-10-31T16:38:11;6.13;;;2.72;;
66974;SDS011;53903;51.464;-2.584;2022-10-31T16:40:40;4.15;;;1.98;;
66974;SDS011;53903;51.464;-2.584;2022-10-31T16:43:08;8.07;;;2.40;;
66974;SDS011;53903;51.464;-2.584;2022-10-31T16:45:36;7.95;;;2.20;;
66974;SDS011;53903;51.464;-2.584;2022-10-31T16:48:03;6.20;;;2.58;;
66974;SDS011;53903;51.464;-2.584;2022-10-31T16:50:30;5.13;;;2.28;;
66974;SDS011;53903;51.464;-2.584;2022-10-31T16:52:55;5.32;;;1.85;;
66974;SDS011;53903;51.464;-2.584;2022-10-31T16:55:21;7.78;;;2.20;;
66974;SDS011;53903;51.464;-2.584;2022-10-31T16:57:47;9.38;;;2.60;;
66974;SDS011;53903;51.464;-2.584;2022-10-31T17:00:16;3.35;;;2.03;;
66974;SDS011;53903;51.464;-2.584;2022-10-31T17:02:44;8.95;;;2.38;;
66974;SDS011;53903;51.464;-2.584;2022-10-31T17:05:14;4.55;;;2.17;;
66974;SDS011;53903;51.464;-2.584;2022-10-31T17:07:40;8.95;;;3.20;;
66974;SDS011;53903;51.464;-2.584;2022-10-31T17:10:06;8.48;;;2.58;;